createdAt,value
2022-11-10T00:03:35.491Z,11.81
2022-11-10T00:08:56.608Z,11.72
2022-11-10T00:14:36.849Z,11.62
2022-11-10T00:19:58.553Z,11.48
2022-11-10T00:25:20.420Z,11.40
2022-11-10T00:30:46.656Z,11.08
2022-11-10T00:36:09.055Z,11.06
2022-11-10T00:41:30.081Z,10.99
2022-11-10T00:46:52.605Z,11.14
2022-11-10T00:52:13.923Z,11.23
2022-11-10T00:57:35.322Z,11.05
2022-11-10T01:02:58.022Z,10.81
2022-11-10T01:08:19.247Z,10.67
2022-11-10T01:13:40.604Z,10.65
2022-11-10T01:19:04.482Z,10.40
2022-11-10T01:24:25.747Z,10.37
2022-11-10T01:29:46.861Z,10.27
2022-11-10T01:35:10.034Z,10.16
2022-11-10T01:40:31.595Z,10.03
2022-11-10T01:45:54.398Z,10.05
2022-11-10T01:51:21.668Z,10.00
2022-11-10T01:56:46.639Z,9.97
2022-11-10T02:02:13.295Z,9.88
2022-11-10T02:07:36.896Z,9.92
2022-11-10T02:12:58.110Z,9.77
2022-11-10T02:18:19.533Z,9.77
2022-11-10T02:23:48.316Z,9.72
2022-11-10T02:29:09.701Z,9.75
2022-11-10T02:34:31.213Z,9.71
2022-11-10T02:39:53.785Z,9.59
2022-11-10T02:45:15.147Z,9.56
2022-11-10T02:50:36.765Z,9.60
2022-11-10T02:55:59.999Z,9.66
2022-11-10T03:01:21.310Z,9.60
2022-11-10T03:06:42.920Z,9.57
2022-11-10T03:12:05.307Z,9.48
2022-11-10T03:17:26.628Z,9.42
2022-11-10T03:22:48.056Z,9.36
2022-11-10T03:28:11.214Z,9.32
2022-11-10T03:33:33.053Z,9.36
2022-11-10T03:38:54.673Z,9.39
2022-11-10T03:44:17.124Z,9.47
2022-11-10T03:49:38.479Z,9.55
2022-11-10T03:55:03.270Z,9.61
2022-11-10T04:00:26.871Z,9.93
2022-11-10T04:06:05.446Z,9.88
2022-11-10T04:11:45.146Z,9.90
2022-11-10T04:17:08.344Z,10.06
2022-11-10T04:22:43.697Z,10.24
2022-11-10T04:28:05.184Z,10.33
2022-11-10T04:33:28.099Z,10.27
2022-11-10T04:38:49.942Z,10.17
2022-11-10T04:44:10.973Z,10.46
2022-11-10T04:49:33.673Z,10.42
2022-11-10T04:54:54.914Z,10.49
2022-11-10T05:00:17.491Z,10.53
2022-11-10T05:05:40.831Z,10.28
2022-11-10T05:11:02.209Z,10.53
2022-11-10T05:16:23.605Z,10.54
2022-11-10T05:21:46.140Z,10.63
2022-11-10T05:27:08.337Z,10.64
2022-11-10T05:32:29.698Z,10.54
2022-11-10T05:37:52.582Z,10.26
2022-11-10T05:43:13.855Z,10.32
2022-11-10T05:48:34.955Z,10.27
2022-11-10T05:53:57.539Z,10.37
2022-11-10T05:59:18.865Z,10.15
2022-11-10T06:04:40.288Z,10.15
2022-11-10T06:10:03.016Z,10.26
2022-11-10T06:15:25.473Z,10.19
2022-11-10T06:20:47.581Z,10.06
2022-11-10T06:26:10.215Z,10.12
2022-11-10T06:31:31.451Z,10.31
2022-11-10T06:36:52.926Z,10.34
2022-11-10T06:42:15.466Z,10.39
2022-11-10T06:47:37.150Z,10.22
2022-11-10T06:53:00.622Z,10.36
2022-11-10T06:58:23.368Z,10.43
2022-11-10T07:04:05.460Z,10.43
2022-11-10T07:09:26.360Z,10.52
2022-11-10T07:14:48.918Z,10.56
2022-11-10T07:20:11.029Z,10.72
2022-11-10T07:25:35.475Z,10.94
2022-11-10T07:30:58.274Z,10.94
2022-11-10T07:36:19.650Z,10.74
2022-11-10T07:41:40.999Z,11.01
2022-11-10T07:47:03.489Z,10.86
2022-11-10T07:52:24.718Z,11.04
2022-11-10T07:57:45.939Z,11.14
2022-11-10T08:03:11.592Z,11.56
2022-11-10T08:08:32.917Z,11.62
2022-11-10T08:13:54.555Z,11.61
2022-11-10T08:19:17.256Z,11.78
2022-11-10T08:24:38.550Z,11.42
2022-11-10T08:36:21.272Z,12.22
2022-11-10T08:41:42.612Z,12.44
2022-11-10T08:47:03.866Z,12.10
2022-11-10T08:52:26.553Z,12.25
2022-11-10T08:57:48.459Z,11.93
2022-11-10T09:03:13.580Z,12.18
2022-11-10T09:08:36.333Z,11.90
2022-11-10T09:14:05.768Z,11.80
2022-11-10T09:19:27.077Z,12.15
2022-11-10T09:24:48.269Z,12.76
2022-11-10T09:30:17.410Z,13.40
2022-11-10T09:35:39.703Z,12.85
2022-11-10T09:41:03.418Z,12.60
2022-11-10T09:46:33.187Z,12.53
2022-11-10T09:51:55.983Z,12.64
2022-11-10T09:57:21.708Z,12.73
2022-11-10T10:02:51.050Z,13.06
2022-11-10T10:08:16.862Z,13.12
2022-11-10T10:13:57.064Z,13.73
2022-11-10T10:19:27.213Z,13.45
2022-11-10T10:24:50.123Z,13.29
2022-11-10T10:30:19.271Z,13.44
2022-11-10T10:35:42.988Z,13.22
2022-11-10T10:41:20.917Z,13.26
2022-11-10T10:46:48.075Z,13.87
2022-11-10T10:52:14.315Z,14.02
2022-11-10T10:57:35.581Z,14.05
2022-11-10T11:03:04.818Z,14.00
2022-11-10T11:08:28.040Z,14.08
2022-11-10T11:13:49.129Z,13.91
2022-11-10T11:19:10.396Z,14.28
2022-11-10T11:24:38.863Z,14.23
2022-11-10T11:30:07.090Z,14.37
2022-11-10T11:35:34.860Z,14.28
2022-11-10T11:41:08.606Z,13.94
2022-11-10T11:46:36.496Z,13.87
2022-11-10T11:52:09.233Z,14.13
2022-11-10T11:57:42.479Z,14.35
2022-11-10T12:03:33.282Z,14.29
2022-11-10T12:09:01.689Z,14.10
2022-11-10T12:14:34.261Z,14.01
2022-11-10T12:20:04.691Z,14.21
2022-11-10T12:25:32.215Z,14.14
2022-11-10T12:31:01.982Z,14.13
2022-11-10T12:36:27.282Z,14.11
2022-11-10T12:41:54.512Z,14.05
2022-11-10T12:47:21.457Z,13.92
2022-11-10T12:52:47.970Z,13.84
2022-11-10T12:58:14.111Z,13.66
2022-11-10T13:03:39.310Z,13.75
2022-11-10T13:09:00.703Z,13.62
2022-11-10T13:14:25.785Z,13.65
2022-11-10T13:19:53.873Z,13.84
2022-11-10T13:25:52.317Z,13.53
2022-11-10T13:31:42.302Z,13.65
2022-11-10T13:37:45.081Z,13.81
2022-11-10T13:43:27.727Z,13.76
2022-11-10T13:49:15.326Z,13.84
2022-11-10T13:55:05.697Z,13.97
2022-11-10T14:00:29.423Z,13.86
2022-11-10T14:06:05.659Z,13.73
2022-11-10T14:11:35.061Z,13.90
2022-11-10T14:16:57.170Z,13.86
2022-11-10T14:22:23.926Z,13.98
2022-11-10T14:27:46.709Z,13.94
2022-11-10T14:33:11.921Z,13.80
2022-11-10T14:38:35.663Z,13.97
2022-11-10T14:44:06.576Z,13.95
2022-11-10T14:49:27.924Z,14.16
2022-11-10T14:54:49.465Z,14.20
2022-11-10T15:00:18.449Z,13.94
2022-11-10T15:05:39.655Z,13.79
2022-11-10T15:11:01.255Z,13.73
2022-11-10T15:16:26.774Z,13.67
2022-11-10T15:21:48.157Z,13.59
2022-11-10T15:27:14.163Z,13.60
2022-11-10T15:32:42.247Z,13.61
2022-11-10T15:38:05.878Z,13.61
2022-11-10T15:43:28.629Z,13.59
2022-11-10T15:48:53.664Z,13.67
2022-11-10T15:54:16.670Z,13.59
2022-11-10T15:59:37.820Z,13.58
2022-11-10T16:05:00.931Z,13.62
2022-11-10T16:10:24.664Z,13.63
2022-11-10T16:15:46.433Z,13.88
2022-11-10T16:21:13.267Z,13.81
2022-11-10T16:26:35.368Z,13.83
2022-11-10T16:31:56.638Z,13.85
2022-11-10T16:37:19.840Z,13.79
2022-11-10T16:42:41.318Z,13.75
2022-11-10T16:48:02.669Z,13.84
2022-11-10T16:53:28.063Z,13.81
2022-11-10T16:58:50.348Z,13.85
2022-11-10T17:04:14.190Z,13.86
2022-11-10T17:09:37.041Z,13.96
2022-11-10T17:14:58.315Z,13.94
2022-11-10T17:20:22.687Z,13.82
2022-11-10T17:25:45.662Z,13.77
2022-11-10T17:31:07.160Z,13.79
2022-11-10T17:36:29.021Z,13.93
2022-11-10T17:41:51.644Z,13.87
2022-11-10T17:47:12.916Z,13.86
2022-11-10T17:52:34.144Z,13.98
2022-11-10T17:57:57.296Z,13.94
2022-11-10T18:03:20.707Z,13.88
2022-11-10T18:08:42.284Z,13.91
2022-11-10T18:14:04.809Z,13.90
2022-11-10T18:19:26.055Z,13.83
2022-11-10T18:24:47.551Z,13.82
2022-11-10T18:30:11.450Z,13.78
2022-11-10T18:35:33.117Z,13.79
2022-11-10T18:40:54.507Z,13.86
2022-11-10T18:46:17.446Z,13.79
2022-11-10T18:51:43.037Z,13.82
2022-11-10T19:09:36.752Z,13.75
2022-11-10T19:14:58.437Z,13.73
2022-11-10T19:20:20.132Z,13.72
2022-11-10T19:25:42.967Z,13.77
2022-11-10T19:31:06.923Z,13.80
2022-11-10T19:36:29.563Z,13.73
2022-11-10T19:41:52.650Z,13.83
2022-11-10T19:47:17.059Z,13.62
2022-11-10T19:52:38.870Z,13.77
2022-11-10T19:58:02.302Z,13.65
2022-11-10T20:03:26.145Z,13.81
2022-11-10T20:08:47.679Z,13.69
2022-11-10T20:14:15.088Z,13.60
2022-11-10T20:19:40.831Z,13.69
2022-11-10T20:25:05.849Z,13.69
2022-11-10T20:30:30.924Z,13.58
2022-11-10T20:49:28.604Z,13.57
2022-11-10T21:09:10.953Z,13.38
2022-11-10T21:14:32.514Z,13.31
2022-11-10T21:19:55.078Z,13.34
2022-11-10T21:25:20.555Z,13.26
2022-11-10T21:30:42.041Z,13.26
2022-11-10T21:36:06.546Z,13.39
2022-11-10T21:41:29.356Z,13.19
2022-11-10T21:46:52.544Z,13.16
2022-11-10T21:52:13.866Z,12.98
2022-11-10T21:58:01.014Z,13.04
2022-11-10T22:03:24.086Z,12.90
2022-11-10T22:08:48.846Z,13.01
2022-11-10T22:14:31.044Z,12.78
2022-11-10T22:19:55.522Z,12.75
2022-11-10T22:25:16.853Z,12.76
2022-11-10T22:30:39.760Z,12.70
2022-11-10T22:36:02.872Z,12.62
2022-11-10T22:41:41.745Z,12.53
2022-11-10T22:47:05.012Z,12.48
2022-11-10T22:52:26.598Z,12.31
2022-11-10T22:57:48.226Z,12.31
2022-11-10T23:03:13.009Z,12.35
2022-11-10T23:08:35.074Z,12.43
2022-11-10T23:13:57.029Z,12.40
2022-11-10T23:19:19.826Z,12.28
2022-11-10T23:24:40.977Z,12.35
2022-11-10T23:30:02.492Z,12.32
2022-11-10T23:35:25.435Z,12.18
2022-11-10T23:40:46.897Z,12.50
2022-11-10T23:46:08.521Z,12.16
2022-11-10T23:51:31.241Z,12.06
2022-11-10T23:56:53.018Z,12.32
